Time;durP1;ratioP1;P1;durP2;ratioP2;P2;SDS_P1;SDS_P2;PMS_P1;PMS_P2;Temp;Humidity;BMP_temperature;BMP_pressure;BME280_temperature;BME280_humidity;BME280_pressure;Samples;Min_cycle;Max_cycle;Signal;HPM_P1;HPM_P2
2022/05/17 00:00:51;;;;;;;5.00;3.67;;;;;;;;;;5013679;28;21005;-77
2022/05/17 00:03:18;;;;;;;5.80;3.30;;;;;;;;;;5011852;28;20527;-77
2022/05/17 00:05:45;;;;;;;5.30;4.30;;;;;;;;;;5011871;28;20934;-77
2022/05/17 00:08:13;;;;;;;10.47;4.13;;;;;;;;;;5011616;28;20881;-77
2022/05/17 00:10:40;;;;;;;5.33;4.80;;;;;;;;;;5012212;28;20530;-77
2022/05/17 00:13:07;;;;;;;4.50;4.10;;;;;;;;;;5011903;28;20482;-77
2022/05/17 00:15:39;;;;;;;4.83;4.07;;;;;;;;;;5011662;28;20826;-78
2022/05/17 00:18:07;;;;;;;4.50;4.10;;;;;;;;;;5011739;28;20896;-78
2022/05/17 00:20:34;;;;;;;4.50;4.20;;;;;;;;;;5011489;28;20455;-78
2022/05/17 00:23:02;;;;;;;6.30;3.77;;;;;;;;;;5011002;28;21068;-77
2022/05/17 00:25:29;;;;;;;6.07;4.30;;;;;;;;;;5011439;28;20923;-78
2022/05/17 00:27:56;;;;;;;4.40;3.97;;;;;;;;;;5011542;28;20467;-77
2022/05/17 00:30:23;;;;;;;5.07;4.00;;;;;;;;;;5011777;28;20840;-77
2022/05/17 00:32:51;;;;;;;4.07;3.77;;;;;;;;;;5011106;28;20447;-77
2022/05/17 00:35:19;;;;;;;4.07;3.70;;;;;;;;;;5010905;28;20821;-77
2022/05/17 00:37:46;;;;;;;4.60;4.20;;;;;;;;;;5011466;28;20460;-78
2022/05/17 00:40:14;;;;;;;6.87;4.47;;;;;;;;;;5011561;28;20448;-77
2022/05/17 00:42:41;;;;;;;4.57;4.13;;;;;;;;;;5011222;28;20446;-77
2022/05/17 00:45:09;;;;;;;4.03;3.73;;;;;;;;;;5011389;28;20490;-77
2022/05/17 00:47:38;;;;;;;5.20;4.43;;;;;;;;;;5010993;28;20467;-78
2022/05/17 00:50:08;;;;;;;7.40;4.23;;;;;;;;;;5011626;28;20439;-77
2022/05/17 00:52:38;;;;;;;4.63;3.90;;;;;;;;;;5011320;28;20505;-78
2022/05/17 00:55:06;;;;;;;4.70;4.30;;;;;;;;;;5011373;28;20521;-77
2022/05/17 00:57:36;;;;;;;4.40;4.00;;;;;;;;;;5011291;28;20540;-78
2022/05/17 01:00:05;;;;;;;4.90;4.17;;;;;;;;;;5015186;28;20446;-77
2022/05/17 01:02:33;;;;;;;6.27;4.40;;;;;;;;;;5014861;28;20455;-78
2022/05/17 01:05:00;;;;;;;4.90;4.40;;;;;;;;;;5015216;28;20448;-76
2022/05/17 01:07:33;;;;;;;5.20;4.70;;;;;;;;;;5006267;28;20850;-77
2022/05/17 01:10:00;;;;;;;4.67;4.27;;;;;;;;;;4995314;28;20860;-76
2022/05/17 01:12:27;;;;;;;5.13;4.40;;;;;;;;;;4995251;28;20498;-77
2022/05/17 01:15:00;;;;;;;5.47;4.93;;;;;;;;;;4995745;28;20475;-78
2022/05/17 01:17:28;;;;;;;4.83;4.37;;;;;;;;;;4995470;28;20945;-77
2022/05/17 01:19:55;;;;;;;5.90;4.33;;;;;;;;;;4995522;28;20444;-77
2022/05/17 01:22:24;;;;;;;4.70;4.30;;;;;;;;;;4995402;28;20444;-77
2022/05/17 01:24:51;;;;;;;7.17;5.40;;;;;;;;;;4994896;28;20937;-78
2022/05/17 01:27:21;;;;;;;4.97;4.47;;;;;;;;;;4994746;28;20463;-77
2022/05/17 01:29:48;;;;;;;5.20;4.80;;;;;;;;;;4995190;28;20928;-77
2022/05/17 01:32:16;;;;;;;5.47;4.70;;;;;;;;;;4995080;28;20449;-76
2022/05/17 01:34:43;;;;;;;5.50;5.00;;;;;;;;;;4995024;28;20484;-78
2022/05/17 01:37:11;;;;;;;5.23;4.83;;;;;;;;;;4994941;28;20980;-77
2022/05/17 01:39:39;;;;;;;4.77;4.43;;;;;;;;;;4995224;28;20451;-78
2022/05/17 01:42:07;;;;;;;5.20;4.80;;;;;;;;;;4994898;28;20459;-77
2022/05/17 01:44:34;;;;;;;4.33;3.97;;;;;;;;;;4994786;28;20490;-77
2022/05/17 01:47:01;;;;;;;5.50;5.00;;;;;;;;;;4994987;28;20444;-77
2022/05/17 01:49:28;;;;;;;5.17;4.77;;;;;;;;;;4994881;28;20491;-77
2022/05/17 01:51:56;;;;;;;5.13;4.63;;;;;;;;;;4994844;28;20456;-77
2022/05/17 01:54:23;;;;;;;7.77;5.13;;;;;;;;;;4994303;28;20575;-77
2022/05/17 01:56:51;;;;;;;4.97;4.57;;;;;;;;;;4994690;28;20543;-77
2022/05/17 01:59:18;;;;;;;6.87;4.67;;;;;;;;;;4994568;28;20494;-77
2022/05/17 02:01:45;;;;;;;5.60;5.00;;;;;;;;;;4994406;28;20514;-77
2022/05/17 02:04:12;;;;;;;5.00;4.60;;;;;;;;;;4994224;28;20496;-78
2022/05/17 02:06:40;;;;;;;6.73;4.97;;;;;;;;;;4997019;28;20991;-78
2022/05/17 02:09:07;;;;;;;4.30;4.00;;;;;;;;;;5013527;28;20538;-78
2022/05/17 02:11:34;;;;;;;5.07;4.67;;;;;;;;;;5014567;28;20845;-77
2022/05/17 02:14:02;;;;;;;5.37;4.53;;;;;;;;;;5015063;28;20575;-77
2022/05/17 02:16:30;;;;;;;5.83;4.97;;;;;;;;;;5015288;28;20542;-77
2022/05/17 02:18:57;;;;;;;5.63;5.13;;;;;;;;;;5015511;28;20456;-77
2022/05/17 02:21:24;;;;;;;5.70;5.20;;;;;;;;;;5015619;28;20474;-77
2022/05/17 02:23:51;;;;;;;5.20;4.70;;;;;;;;;;5017623;28;20474;-78
2022/05/17 02:26:18;;;;;;;5.00;4.60;;;;;;;;;;5016647;28;20447;-78
2022/05/17 02:28:45;;;;;;;5.70;5.10;;;;;;;;;;5014100;28;20467;-79
2022/05/17 02:31:15;;;;;;;6.20;5.60;;;;;;;;;;5014321;28;20442;-77
2022/05/17 02:33:42;;;;;;;6.50;5.90;;;;;;;;;;5013965;28;20479;-78
2022/05/17 02:36:09;;;;;;;7.60;5.87;;;;;;;;;;5013609;28;20447;-78
2022/05/17 02:38:36;;;;;;;6.03;5.53;;;;;;;;;;5014273;28;20577;-77
2022/05/17 02:41:04;;;;;;;5.73;5.33;;;;;;;;;;5015487;28;20997;-77
2022/05/17 02:43:31;;;;;;;6.73;6.13;;;;;;;;;;5015275;28;20443;-78
2022/05/17 02:45:58;;;;;;;5.80;5.40;;;;;;;;;;5015941;28;20802;-77
2022/05/17 02:48:26;;;;;;;7.33;5.60;;;;;;;;;;5013340;28;20515;-78
2022/05/17 02:50:53;;;;;;;5.93;5.43;;;;;;;;;;5013234;28;20761;-78
2022/05/17 02:53:21;;;;;;;7.77;6.30;;;;;;;;;;5013239;28;20447;-77
2022/05/17 02:55:48;;;;;;;8.57;5.77;;;;;;;;;;5013469;28;20561;-78
2022/05/17 02:58:15;;;;;;;7.13;5.50;;;;;;;;;;5011325;28;20857;-77
2022/05/17 03:00:42;;;;;;;6.43;5.90;;;;;;;;;;5016451;28;20444;-78
2022/05/17 03:03:10;;;;;;;6.80;6.20;;;;;;;;;;5013885;28;20494;-77
2022/05/17 03:05:38;;;;;;;6.60;5.73;;;;;;;;;;5014735;28;20451;-79
2022/05/17 03:08:06;;;;;;;7.57;6.50;;;;;;;;;;5015754;28;20494;-79
2022/05/17 03:10:33;;;;;;;7.33;6.60;;;;;;;;;;5013165;28;20450;-78
2022/05/17 03:13:01;;;;;;;7.30;6.60;;;;;;;;;;5012708;28;20475;-78
2022/05/17 03:15:28;;;;;;;8.63;6.30;;;;;;;;;;5012807;28;20605;-78
2022/05/17 03:17:55;;;;;;;7.03;6.43;;;;;;;;;;5012836;28;20853;-77
2022/05/17 03:20:22;;;;;;;6.80;6.13;;;;;;;;;;5013010;28;20448;-78
2022/05/17 03:22:50;;;;;;;9.00;7.30;;;;;;;;;;5012489;28;20431;-77
2022/05/17 03:25:17;;;;;;;9.80;6.53;;;;;;;;;;5013063;28;20821;-78
2022/05/17 03:27:44;;;;;;;6.93;6.33;;;;;;;;;;5013035;28;20468;-78
2022/05/17 03:30:12;;;;;;;7.30;6.60;;;;;;;;;;5012709;28;20441;-78
2022/05/17 03:32:39;;;;;;;7.80;7.10;;;;;;;;;;5013235;28;20455;-77
2022/05/17 03:35:07;;;;;;;7.20;6.50;;;;;;;;;;5012520;28;20495;-79
2022/05/17 03:37:34;;;;;;;6.77;6.13;;;;;;;;;;5013287;28;20950;-78
2022/05/17 03:40:04;;;;;;;7.60;6.33;;;;;;;;;;5022020;28;20502;-77
2022/05/17 03:42:31;;;;;;;12.30;6.40;;;;;;;;;;5020636;28;20458;-77
2022/05/17 03:44:58;;;;;;;6.20;5.70;;;;;;;;;;5012495;28;20452;-78
2022/05/17 03:47:25;;;;;;;7.80;7.00;;;;;;;;;;5013461;28;20463;-78
2022/05/17 03:49:52;;;;;;;9.90;6.33;;;;;;;;;;5012241;28;20525;-78
2022/05/17 03:52:19;;;;;;;7.17;6.53;;;;;;;;;;5012923;28;20463;-79
2022/05/17 03:54:46;;;;;;;7.50;6.27;;;;;;;;;;5011955;28;20494;-78
2022/05/17 03:57:15;;;;;;;7.50;6.67;;;;;;;;;;5011871;28;20883;-78
2022/05/17 03:59:42;;;;;;;7.20;6.50;;;;;;;;;;5012480;28;20443;-78
2022/05/17 04:02:09;;;;;;;8.50;7.00;;;;;;;;;;5012380;28;20447;-79
2022/05/17 04:04:36;;;;;;;8.00;6.80;;;;;;;;;;5012072;28;20455;-78
2022/05/17 04:07:03;;;;;;;9.83;6.67;;;;;;;;;;5005821;28;20952;-78
2022/05/17 04:09:30;;;;;;;11.10;8.30;;;;;;;;;;4993288;28;20448;-79
2022/05/17 04:11:57;;;;;;;6.77;6.17;;;;;;;;;;4992194;28;20445;-77
2022/05/17 04:14:26;;;;;;;7.27;6.53;;;;;;;;;;4992175;28;20975;-78
2022/05/17 04:16:53;;;;;;;10.60;6.97;;;;;;;;;;4992359;28;20448;-78
2022/05/17 04:19:20;;;;;;;8.30;7.53;;;;;;;;;;4992311;28;20953;-78
2022/05/17 04:21:48;;;;;;;7.00;6.30;;;;;;;;;;4992462;28;20448;-78
2022/05/17 04:24:15;;;;;;;7.70;7.00;;;;;;;;;;4992379;28;20482;-79
2022/05/17 04:26:42;;;;;;;9.27;7.37;;;;;;;;;;4992019;28;20676;-79
2022/05/17 04:29:10;;;;;;;10.70;7.20;;;;;;;;;;4992311;28;20510;-78
2022/05/17 04:31:38;;;;;;;8.03;7.27;;;;;;;;;;4992320;28;20451;-78
2022/05/17 04:34:05;;;;;;;7.67;6.70;;;;;;;;;;4991410;28;20507;-78
2022/05/17 04:36:33;;;;;;;8.33;7.43;;;;;;;;;;5008165;28;20458;-78
2022/05/17 04:39:01;;;;;;;9.47;7.70;;;;;;;;;;5012075;28;20525;-78
2022/05/17 04:41:28;;;;;;;9.03;7.90;;;;;;;;;;5013264;28;20448;-78
2022/05/17 04:43:55;;;;;;;8.13;7.33;;;;;;;;;;5011604;28;20596;-78
2022/05/17 04:46:22;;;;;;;11.73;8.50;;;;;;;;;;5011951;28;20439;-78
2022/05/17 04:48:51;;;;;;;10.87;8.10;;;;;;;;;;5011539;28;20545;-79
2022/05/17 04:51:18;;;;;;;8.20;7.40;;;;;;;;;;5011623;28;20432;-77
2022/05/17 04:53:45;;;;;;;8.70;6.90;;;;;;;;;;5010881;28;20777;-78
2022/05/17 04:56:12;;;;;;;7.23;6.53;;;;;;;;;;5011686;28;20490;-78
2022/05/17 04:58:40;;;;;;;11.50;7.70;;;;;;;;;;5011718;28;20799;-78
2022/05/17 05:01:07;;;;;;;9.20;8.30;;;;;;;;;;5012268;28;20823;-78
2022/05/17 05:03:34;;;;;;;8.87;7.97;;;;;;;;;;5011884;28;20475;-78
2022/05/17 05:06:02;;;;;;;12.23;8.03;;;;;;;;;;5011271;28;20439;-79
2022/05/17 05:08:30;;;;;;;10.40;8.03;;;;;;;;;;5011430;28;20593;-78
2022/05/17 05:10:57;;;;;;;8.83;8.00;;;;;;;;;;5011706;28;20501;-78
2022/05/17 05:13:25;;;;;;;8.50;7.70;;;;;;;;;;5011884;28;20443;-78
2022/05/17 05:15:52;;;;;;;13.30;8.77;;;;;;;;;;5011718;28;20546;-78
2022/05/17 05:18:19;;;;;;;11.47;8.50;;;;;;;;;;5011139;28;21002;-77
2022/05/17 05:20:46;;;;;;;10.60;8.50;;;;;;;;;;5011603;28;20435;-78
2022/05/17 05:23:14;;;;;;;8.97;7.80;;;;;;;;;;5011281;28;20444;-78
2022/05/17 05:25:42;;;;;;;10.10;7.63;;;;;;;;;;5011312;28;20431;-77
2022/05/17 05:28:09;;;;;;;8.70;7.10;;;;;;;;;;5011105;28;20463;-79
2022/05/17 05:30:36;;;;;;;11.47;7.77;;;;;;;;;;5011366;28;20513;-78
2022/05/17 05:33:03;;;;;;;9.10;7.63;;;;;;;;;;5011254;28;20451;-77
2022/05/17 05:35:32;;;;;;;11.33;7.60;;;;;;;;;;5011386;28;21045;-79
2022/05/17 05:37:59;;;;;;;8.67;7.60;;;;;;;;;;5003218;28;20486;-79
2022/05/17 05:40:28;;;;;;;9.37;8.47;;;;;;;;;;4993428;28;20444;-77
2022/05/17 05:42:56;;;;;;;9.27;8.00;;;;;;;;;;4997535;28;20452;-76
2022/05/17 05:45:23;;;;;;;7.93;6.73;;;;;;;;;;5011958;28;20443;-78
2022/05/17 05:47:50;;;;;;;9.20;7.87;;;;;;;;;;5016644;28;21007;-77
2022/05/17 05:50:17;;;;;;;8.30;7.37;;;;;;;;;;5029578;28;20423;-76
2022/05/17 05:52:44;;;;;;;13.10;7.63;;;;;;;;;;5034238;28;20439;-77
2022/05/17 05:55:16;;;;;;;10.00;8.00;;;;;;;;;;5017568;28;20471;-77
2022/05/17 05:57:44;;;;;;;9.97;7.57;;;;;;;;;;5014079;28;20510;-77
2022/05/17 06:00:12;;;;;;;14.80;6.90;;;;;;;;;;5014298;28;20498;-77
2022/05/17 06:02:39;;;;;;;8.93;8.23;;;;;;;;;;5014527;28;20475;-78
2022/05/17 06:05:06;;;;;;;11.40;7.17;;;;;;;;;;5016328;28;20474;-77
2022/05/17 06:07:35;;;;;;;10.90;7.27;;;;;;;;;;5015713;28;20970;-77
2022/05/17 06:10:02;;;;;;;9.70;8.43;;;;;;;;;;5015392;28;20470;-76
2022/05/17 06:12:29;;;;;;;9.33;7.73;;;;;;;;;;5014912;28;20955;-78
2022/05/17 06:14:58;;;;;;;7.77;7.00;;;;;;;;;;5010991;28;20494;-78
2022/05/17 06:17:27;;;;;;;9.40;8.10;;;;;;;;;;5016124;28;20975;-78
2022/05/17 06:19:55;;;;;;;10.33;7.73;;;;;;;;;;5015112;28;20444;-78
2022/05/17 06:22:22;;;;;;;9.10;8.00;;;;;;;;;;5014448;28;20534;-79
2022/05/17 06:24:49;;;;;;;15.07;8.73;;;;;;;;;;5016455;28;20568;-79
2022/05/17 06:27:16;;;;;;;16.03;8.10;;;;;;;;;;5014964;28;20848;-79
2022/05/17 06:29:43;;;;;;;10.50;7.53;;;;;;;;;;5015159;28;20521;-78
2022/05/17 06:32:12;;;;;;;9.23;7.30;;;;;;;;;;5014676;28;20447;-79
2022/05/17 06:34:39;;;;;;;8.50;7.03;;;;;;;;;;5014961;28;20881;-78
2022/05/17 06:37:07;;;;;;;11.00;7.13;;;;;;;;;;5016855;28;20443;-79
2022/05/17 06:39:34;;;;;;;8.60;7.03;;;;;;;;;;5015741;28;20478;-80
2022/05/17 06:42:01;;;;;;;8.10;7.17;;;;;;;;;;5014328;28;20514;-79
2022/05/17 06:44:29;;;;;;;10.53;8.27;;;;;;;;;;5015833;28;20471;-79
2022/05/17 06:46:58;;;;;;;7.43;6.23;;;;;;;;;;5013668;28;20504;-78
2022/05/17 06:49:27;;;;;;;8.00;7.17;;;;;;;;;;5014025;28;20538;-78
2022/05/17 06:51:57;;;;;;;8.33;7.03;;;;;;;;;;5014389;28;20471;-79
2022/05/17 06:54:24;;;;;;;7.93;7.13;;;;;;;;;;5015127;28;20482;-78
2022/05/17 06:56:51;;;;;;;8.50;7.37;;;;;;;;;;5013556;28;20900;-78
2022/05/17 06:59:18;;;;;;;8.50;6.90;;;;;;;;;;5014553;28;20456;-79
2022/05/17 07:01:47;;;;;;;8.73;7.80;;;;;;;;;;5013618;28;20494;-78
2022/05/17 07:04:14;;;;;;;8.43;6.47;;;;;;;;;;5013581;28;20467;-79
2022/05/17 07:06:43;;;;;;;10.47;7.57;;;;;;;;;;5015589;28;20939;-79
2022/05/17 07:09:12;;;;;;;8.30;7.50;;;;;;;;;;5016833;28;20513;-78
2022/05/17 07:14:23;;;;;;;10.77;6.93;;;;;;;;;;5012393;28;20497;-78
2022/05/17 07:16:51;;;;;;;8.70;7.93;;;;;;;;;;5013009;28;20487;-79
2022/05/17 07:19:18;;;;;;;14.47;7.43;;;;;;;;;;5017130;28;20514;-79
2022/05/17 07:21:46;;;;;;;8.40;7.13;;;;;;;;;;5010205;28;20497;-79
2022/05/17 07:24:13;;;;;;;7.30;6.60;;;;;;;;;;5014037;28;20531;-78
2022/05/17 07:26:40;;;;;;;8.20;7.40;;;;;;;;;;5014720;28;20436;-79
2022/05/17 07:29:08;;;;;;;8.93;7.50;;;;;;;;;;5013090;28;20541;-79
2022/05/17 07:31:35;;;;;;;10.37;7.93;;;;;;;;;;5015415;28;20450;-77
2022/05/17 07:34:03;;;;;;;8.57;7.67;;;;;;;;;;5012595;28;20456;-79
2022/05/17 07:36:30;;;;;;;8.00;7.20;;;;;;;;;;5013967;28;20475;-79
2022/05/17 07:38:59;;;;;;;10.37;7.53;;;;;;;;;;5016453;28;20503;-79
2022/05/17 07:41:26;;;;;;;7.67;6.97;;;;;;;;;;5013288;28;20447;-78
2022/05/17 07:43:53;;;;;;;7.33;6.30;;;;;;;;;;5012367;28;20905;-78
2022/05/17 07:46:20;;;;;;;7.97;7.17;;;;;;;;;;5012780;28;20447;-79
2022/05/17 07:48:47;;;;;;;7.03;6.10;;;;;;;;;;5011890;28;21006;-78
2022/05/17 07:51:14;;;;;;;7.40;6.70;;;;;;;;;;5015100;28;20447;-79
2022/05/17 07:53:41;;;;;;;6.03;5.47;;;;;;;;;;5016300;28;20530;-79
2022/05/17 07:56:18;;;;;;;5.40;4.90;;;;;;;;;;5015384;28;20479;-78
2022/05/17 07:58:45;;;;;;;5.67;5.10;;;;;;;;;;5012754;28;20493;-79
2022/05/17 08:01:12;;;;;;;5.53;5.07;;;;;;;;;;5012460;28;20460;-78
2022/05/17 08:03:39;;;;;;;5.13;4.50;;;;;;;;;;5011698;28;20956;-78
2022/05/17 08:06:06;;;;;;;5.13;4.70;;;;;;;;;;5012121;28;20509;-78
2022/05/17 08:08:33;;;;;;;7.33;5.93;;;;;;;;;;5008862;28;20460;-77
2022/05/17 08:11:01;;;;;;;5.80;5.10;;;;;;;;;;5009118;28;20455;-78
2022/05/17 08:13:29;;;;;;;4.87;4.47;;;;;;;;;;5011142;28;20450;-78
2022/05/17 08:15:56;;;;;;;9.40;5.33;;;;;;;;;;5011829;28;20494;-78
2022/05/17 08:18:23;;;;;;;6.30;4.07;;;;;;;;;;5011274;28;20881;-77
2022/05/17 08:20:51;;;;;;;4.90;4.60;;;;;;;;;;5012123;28;20440;-78
2022/05/17 08:23:18;;;;;;;6.13;5.20;;;;;;;;;;5011808;28;20447;-77
2022/05/17 08:28:31;;;;;;;5.63;4.30;;;;;;;;;;5011463;28;20439;-77
2022/05/17 08:30:58;;;;;;;6.37;4.70;;;;;;;;;;5011745;28;20517;-77
2022/05/17 08:33:26;;;;;;;5.77;4.60;;;;;;;;;;5011829;28;20481;-77
2022/05/17 08:35:55;;;;;;;5.30;4.90;;;;;;;;;;5013406;28;20471;-77
2022/05/17 08:38:23;;;;;;;5.80;4.70;;;;;;;;;;5017894;28;20479;-76
2022/05/17 08:41:09;;;;;;;5.87;4.57;;;;;;;;;;5010851;28;20861;-77
2022/05/17 08:43:45;;;;;;;4.57;3.93;;;;;;;;;;5016924;28;20853;-77
2022/05/17 08:46:19;;;;;;;7.20;4.43;;;;;;;;;;5018587;28;20816;-77
2022/05/17 08:48:50;;;;;;;6.17;4.80;;;;;;;;;;5018320;28;20482;-75
2022/05/17 08:51:19;;;;;;;6.40;4.80;;;;;;;;;;5016983;28;20443;-77
2022/05/17 08:53:46;;;;;;;8.10;4.87;;;;;;;;;;5012789;28;20440;-77
2022/05/17 08:56:14;;;;;;;7.87;4.47;;;;;;;;;;5012575;28;20515;-77
2022/05/17 08:58:46;;;;;;;6.00;4.63;;;;;;;;;;5013095;28;20471;-77
2022/05/17 09:01:20;;;;;;;4.83;4.23;;;;;;;;;;5013085;28;20923;-78
2022/05/17 09:03:54;;;;;;;6.13;4.40;;;;;;;;;;5013869;28;20458;-76
2022/05/17 09:06:24;;;;;;;5.17;4.77;;;;;;;;;;5013035;28;20935;-77
2022/05/17 09:08:56;;;;;;;4.23;3.87;;;;;;;;;;4993663;28;20460;-77
2022/05/17 09:11:25;;;;;;;6.80;4.30;;;;;;;;;;4992527;28;20801;-76
2022/05/17 09:13:55;;;;;;;4.60;4.20;;;;;;;;;;4991479;28;20491;-76
2022/05/17 09:16:23;;;;;;;5.23;4.00;;;;;;;;;;4994014;28;20484;-77
2022/05/17 09:18:51;;;;;;;4.87;3.83;;;;;;;;;;4995166;28;20464;-77
2022/05/17 09:21:29;;;;;;;4.20;3.80;;;;;;;;;;4996467;28;20448;-78
2022/05/17 09:23:58;;;;;;;3.80;3.50;;;;;;;;;;4996431;28;20450;-77
2022/05/17 09:26:26;;;;;;;5.50;4.10;;;;;;;;;;5000917;28;20443;-76
2022/05/17 09:28:57;;;;;;;5.73;4.60;;;;;;;;;;5001820;28;20472;-76
2022/05/17 09:31:57;;;;;;;4.70;4.30;;;;;;;;;;5016098;28;20428;-77
2022/05/17 09:34:29;;;;;;;4.17;3.77;;;;;;;;;;5016946;28;20456;-78
2022/05/17 09:37:00;;;;;;;8.10;3.57;;;;;;;;;;5003786;28;20507;-77
2022/05/17 09:39:27;;;;;;;4.70;4.30;;;;;;;;;;5010919;28;20455;-77
2022/05/17 09:41:57;;;;;;;9.93;4.47;;;;;;;;;;5016985;28;20548;-77
2022/05/17 09:44:26;;;;;;;6.23;4.43;;;;;;;;;;4998395;28;20452;-78
2022/05/17 09:46:57;;;;;;;4.40;4.10;;;;;;;;;;4995732;28;20523;-77
2022/05/17 09:52:34;;;;;;;6.60;4.57;;;;;;;;;;4994773;28;20419;-76
2022/05/17 09:55:20;;;;;;;5.10;3.97;;;;;;;;;;4994893;28;20548;-77
2022/05/17 09:57:54;;;;;;;4.43;4.10;;;;;;;;;;4998598;28;20543;-78
2022/05/17 10:00:26;;;;;;;4.43;4.03;;;;;;;;;;5015352;28;20458;-77
2022/05/17 10:02:56;;;;;;;7.30;3.83;;;;;;;;;;4994461;28;20444;-76
2022/05/17 10:05:24;;;;;;;4.33;3.93;;;;;;;;;;4994776;28;20455;-77
2022/05/17 10:07:59;;;;;;;6.93;4.53;;;;;;;;;;5006751;28;20459;-77
2022/05/17 10:10:35;;;;;;;5.17;4.00;;;;;;;;;;5013945;28;20797;-77
2022/05/17 10:13:05;;;;;;;4.00;3.67;;;;;;;;;;5014509;28;20493;-78
2022/05/17 10:15:35;;;;;;;4.53;3.93;;;;;;;;;;5014801;28;20460;-79
2022/05/17 10:18:05;;;;;;;4.43;3.87;;;;;;;;;;5013980;28;20487;-77
2022/05/17 10:20:34;;;;;;;4.90;4.40;;;;;;;;;;5010067;28;20450;-78
2022/05/17 10:23:03;;;;;;;3.90;3.60;;;;;;;;;;5013604;28;20818;-77
2022/05/17 10:25:32;;;;;;;4.47;3.70;;;;;;;;;;5013729;28;20894;-76
2022/05/17 10:28:03;;;;;;;5.03;4.53;;;;;;;;;;5013535;28;20486;-76
2022/05/17 10:30:40;;;;;;;4.13;3.60;;;;;;;;;;5006977;28;20464;-76
2022/05/17 10:33:10;;;;;;;4.30;3.87;;;;;;;;;;5003907;28;20448;-76
2022/05/17 10:35:40;;;;;;;7.33;4.10;;;;;;;;;;5008128;28;20451;-77
2022/05/17 10:38:10;;;;;;;6.00;3.43;;;;;;;;;;5002751;28;20571;-77
2022/05/17 10:40:43;;;;;;;5.83;4.10;;;;;;;;;;4994359;28;20428;-78
2022/05/17 10:43:12;;;;;;;3.80;3.47;;;;;;;;;;4993791;28;20947;-77
2022/05/17 10:45:41;;;;;;;4.00;3.77;;;;;;;;;;4993976;28;20481;-77
2022/05/17 10:48:13;;;;;;;4.63;4.23;;;;;;;;;;4993989;28;20522;-78
2022/05/17 10:50:47;;;;;;;6.80;4.03;;;;;;;;;;4994250;28;20449;-76
2022/05/17 10:53:19;;;;;;;4.13;3.73;;;;;;;;;;4993677;28;20929;-77
2022/05/17 10:55:49;;;;;;;7.50;3.80;;;;;;;;;;4993731;28;20940;-77
2022/05/17 10:58:21;;;;;;;3.97;3.57;;;;;;;;;;4993593;28;20998;-77
2022/05/17 11:00:54;;;;;;;5.23;4.23;;;;;;;;;;4994291;28;20448;-78
2022/05/17 11:03:45;;;;;;;4.70;4.30;;;;;;;;;;4993659;28;20452;-79
2022/05/17 11:06:18;;;;;;;4.13;3.60;;;;;;;;;;4993417;28;20444;-77
2022/05/17 11:08:52;;;;;;;4.30;3.90;;;;;;;;;;5013110;28;20546;-77
2022/05/17 11:11:27;;;;;;;5.43;3.87;;;;;;;;;;5013035;28;20451;-78
2022/05/17 11:13:58;;;;;;;4.17;3.70;;;;;;;;;;5013229;28;20470;-78
2022/05/17 11:16:32;;;;;;;5.33;3.53;;;;;;;;;;5013160;28;20505;-77
2022/05/17 11:19:03;;;;;;;5.60;3.27;;;;;;;;;;5012870;28;20471;-78
2022/05/17 11:21:32;;;;;;;6.77;3.33;;;;;;;;;;5014991;28;20630;-78
2022/05/17 11:24:04;;;;;;;7.80;3.97;;;;;;;;;;5013968;28;20505;-78
2022/05/17 11:26:50;;;;;;;7.43;4.07;;;;;;;;;;5012893;28;20928;-76
2022/05/17 11:29:31;;;;;;;5.17;3.90;;;;;;;;;;5013646;28;20530;-78
2022/05/17 11:32:00;;;;;;;6.73;3.57;;;;;;;;;;5013277;28;20498;-76
2022/05/17 11:34:32;;;;;;;5.63;3.53;;;;;;;;;;5013158;28;20494;-76
2022/05/17 11:37:00;;;;;;;3.07;2.87;;;;;;;;;;5013321;28;20578;-77
2022/05/17 11:39:46;;;;;;;3.20;3.00;;;;;;;;;;5006300;28;20530;-76
2022/05/17 11:42:26;;;;;;;5.23;3.00;;;;;;;;;;5012389;28;20451;-77
2022/05/17 11:44:53;;;;;;;3.50;3.20;;;;;;;;;;5012882;28;20454;-77
2022/05/17 11:47:33;;;;;;;5.93;3.07;;;;;;;;;;5012739;28;20463;-75
2022/05/17 11:50:27;;;;;;;3.57;3.27;;;;;;;;;;5012715;28;20458;-76
2022/05/17 11:52:57;;;;;;;3.23;3.03;;;;;;;;;;4988721;28;20451;-76
2022/05/17 11:55:28;;;;;;;3.37;3.07;;;;;;;;;;5012428;28;20490;-77
2022/05/17 11:57:59;;;;;;;6.10;2.87;;;;;;;;;;5012069;28;20483;-76
2022/05/17 12:00:47;;;;;;;3.80;2.70;;;;;;;;;;5011969;28;21039;-76
2022/05/17 12:03:42;;;;;;;3.87;2.87;;;;;;;;;;5020988;28;20546;-76
2022/05/17 12:06:29;;;;;;;3.20;2.90;;;;;;;;;;5031577;28;20442;-77
2022/05/17 12:08:56;;;;;;;4.93;2.83;;;;;;;;;;4992393;28;20452;-76
2022/05/17 12:11:29;;;;;;;3.43;2.30;;;;;;;;;;4992855;28;20440;-76
2022/05/17 12:14:01;;;;;;;3.20;3.00;;;;;;;;;;4992341;28;20935;-75
2022/05/17 12:16:29;;;;;;;3.37;2.53;;;;;;;;;;4992652;28;20436;-76
2022/05/17 12:19:00;;;;;;;2.70;2.50;;;;;;;;;;4992027;28;20912;-76
2022/05/17 12:21:36;;;;;;;2.83;2.47;;;;;;;;;;4992093;28;20490;-77
2022/05/17 12:24:08;;;;;;;3.07;2.80;;;;;;;;;;4992053;28;20447;-77
2022/05/17 12:26:45;;;;;;;3.20;2.10;;;;;;;;;;4993794;28;20448;-75
2022/05/17 12:32:46;;;;;;;2.47;2.27;;;;;;;;;;5032940;28;20617;-78
2022/05/17 12:44:34;;;;;;;1.90;1.80;;;;;;;;;;5031235;28;20430;-77
2022/05/17 12:47:01;;;;;;;1.90;1.80;;;;;;;;;;5011261;28;20459;-77
2022/05/17 12:49:29;;;;;;;4.10;1.80;;;;;;;;;;5011378;28;20462;-77
2022/05/17 12:51:59;;;;;;;1.40;1.30;;;;;;;;;;5022395;28;20450;-77
2022/05/17 12:54:29;;;;;;;3.67;1.60;;;;;;;;;;5036979;28;20431;-76
2022/05/17 12:56:58;;;;;;;1.90;1.70;;;;;;;;;;5015706;28;20504;-76
2022/05/17 12:59:27;;;;;;;2.30;1.47;;;;;;;;;;5032345;28;20447;-77
2022/05/17 13:01:56;;;;;;;2.00;1.80;;;;;;;;;;5039142;28;20455;-76
2022/05/17 13:04:26;;;;;;;1.90;1.70;;;;;;;;;;5020865;28;20939;-78
2022/05/17 13:06:54;;;;;;;1.73;1.63;;;;;;;;;;5015254;28;20439;-77
2022/05/17 13:09:24;;;;;;;1.50;1.40;;;;;;;;;;5015463;28;20451;-77
2022/05/17 13:11:51;;;;;;;1.40;1.30;;;;;;;;;;5015895;28;20451;-76
2022/05/17 13:14:22;;;;;;;2.40;1.73;;;;;;;;;;5015195;28;20537;-76
2022/05/17 13:16:49;;;;;;;1.70;1.60;;;;;;;;;;5015758;28;20478;-76
2022/05/17 13:19:18;;;;;;;2.37;1.77;;;;;;;;;;5025994;28;20459;-76
2022/05/17 13:21:51;;;;;;;3.63;2.07;;;;;;;;;;5026398;28;20439;-76
2022/05/17 13:24:26;;;;;;;1.67;1.57;;;;;;;;;;5014450;28;20443;-76
2022/05/17 13:26:53;;;;;;;1.50;1.40;;;;;;;;;;5015010;28;20447;-77
2022/05/17 13:29:27;;;;;;;2.00;1.70;;;;;;;;;;5014905;28;20821;-76
2022/05/17 13:31:56;;;;;;;2.43;1.70;;;;;;;;;;5032598;28;20458;-76
2022/05/17 13:34:27;;;;;;;2.27;1.87;;;;;;;;;;5033897;28;20529;-75
2022/05/17 13:37:02;;;;;;;1.80;1.70;;;;;;;;;;5034423;28;20529;-75
2022/05/17 13:39:31;;;;;;;2.70;1.80;;;;;;;;;;5034889;28;20450;-75
2022/05/17 13:41:59;;;;;;;2.00;1.67;;;;;;;;;;5034162;28;20445;-76
2022/05/17 13:44:27;;;;;;;3.43;1.80;;;;;;;;;;5034135;28;20446;-75
2022/05/17 13:46:54;;;;;;;2.50;1.60;;;;;;;;;;5033867;28;20446;-75
2022/05/17 13:49:24;;;;;;;1.80;1.70;;;;;;;;;;5034429;28;20552;-76
2022/05/17 13:51:55;;;;;;;1.90;1.80;;;;;;;;;;5034307;28;20446;-77
2022/05/17 13:54:28;;;;;;;2.10;1.80;;;;;;;;;;5034139;28;20902;-76
2022/05/17 13:56:59;;;;;;;5.47;2.20;;;;;;;;;;5033998;28;20509;-76
2022/05/17 13:59:29;;;;;;;2.40;1.60;;;;;;;;;;5033913;28;20548;-76
2022/05/17 14:01:56;;;;;;;2.10;1.80;;;;;;;;;;5034650;28;20434;-75
2022/05/17 14:04:25;;;;;;;1.77;1.67;;;;;;;;;;5034349;28;20458;-78
2022/05/17 14:06:54;;;;;;;2.27;1.60;;;;;;;;;;5029385;28;20439;-75
2022/05/17 14:12:17;;;;;;;1.63;1.30;;;;;;;;;;5009136;28;20443;-76
2022/05/17 14:14:44;;;;;;;3.13;1.77;;;;;;;;;;5010594;28;20438;-77
2022/05/17 14:17:14;;;;;;;1.63;1.50;;;;;;;;;;5013969;28;20439;-76
2022/05/17 14:19:42;;;;;;;2.30;1.70;;;;;;;;;;5014171;28;20522;-76
2022/05/17 14:22:10;;;;;;;2.37;1.70;;;;;;;;;;5014656;28;20915;-76
2022/05/17 14:24:37;;;;;;;2.90;2.70;;;;;;;;;;5013324;28;20440;-76
2022/05/17 14:27:05;;;;;;;1.53;1.43;;;;;;;;;;5014152;28;20554;-76
2022/05/17 14:29:34;;;;;;;2.20;2.00;;;;;;;;;;5014029;28;20476;-77
2022/05/17 14:32:02;;;;;;;4.80;2.00;;;;;;;;;;5013650;28;20486;-76
2022/05/17 14:34:29;;;;;;;2.57;2.37;;;;;;;;;;5011476;28;20836;-76
2022/05/17 14:36:57;;;;;;;1.50;1.40;;;;;;;;;;5010369;28;20825;-75
2022/05/17 14:39:24;;;;;;;1.60;1.50;;;;;;;;;;5013886;28;20491;-76
2022/05/17 14:41:54;;;;;;;1.47;1.37;;;;;;;;;;5014572;28;20466;-76
2022/05/17 14:44:21;;;;;;;1.10;1.10;;;;;;;;;;5013891;28;20497;-77
2022/05/17 14:46:57;;;;;;;1.17;1.07;;;;;;;;;;5014169;28;20448;-77
2022/05/17 14:49:28;;;;;;;2.50;1.60;;;;;;;;;;5011314;28;20546;-75
2022/05/17 14:51:55;;;;;;;1.30;1.20;;;;;;;;;;5027771;28;20446;-77
2022/05/17 14:54:22;;;;;;;1.10;1.10;;;;;;;;;;5032763;28;20443;-78
2022/05/17 14:56:50;;;;;;;2.23;1.40;;;;;;;;;;5034464;28;20438;-76
2022/05/17 14:59:17;;;;;;;2.03;1.20;;;;;;;;;;5033373;28;20516;-76
2022/05/17 15:01:45;;;;;;;1.93;1.30;;;;;;;;;;5020108;28;20446;-77
2022/05/17 15:04:14;;;;;;;1.30;1.20;;;;;;;;;;5012859;28;20882;-76
2022/05/17 15:06:55;;;;;;;1.40;1.30;;;;;;;;;;5013263;28;20812;-75
2022/05/17 15:09:23;;;;;;;1.33;1.23;;;;;;;;;;5013164;28;20474;-78
2022/05/17 15:11:50;;;;;;;1.57;1.07;;;;;;;;;;5014906;28;20546;-78
2022/05/17 15:14:17;;;;;;;2.90;1.20;;;;;;;;;;5004985;28;20906;-77
2022/05/17 15:16:44;;;;;;;1.37;1.30;;;;;;;;;;5003273;28;20444;-77